createdAt,value
2022-11-17T00:02:52.891Z,1.63
2022-11-17T00:05:54.579Z,1.50
2022-11-17T00:08:56.308Z,1.40
2022-11-17T00:12:22.064Z,2.20
2022-11-17T00:15:24.604Z,1.50
2022-11-17T00:18:44.993Z,1.60
2022-11-17T00:21:46.729Z,1.67
2022-11-17T00:24:49.106Z,1.50
2022-11-17T00:27:50.840Z,1.57
2022-11-17T00:31:11.656Z,1.73
2022-11-17T00:34:16.507Z,1.60
2022-11-17T00:37:18.334Z,1.17
2022-11-17T00:40:20.045Z,1.30
2022-11-17T00:43:21.698Z,1.50
2022-11-17T00:46:23.549Z,1.33
2022-11-17T00:49:25.295Z,1.53
2022-11-17T00:52:26.959Z,1.67
2022-11-17T00:55:28.688Z,1.30
2022-11-17T00:58:30.368Z,1.73
2022-11-17T01:01:32.396Z,1.60
2022-11-17T01:04:34.134Z,1.90
2022-11-17T01:07:35.851Z,1.77
2022-11-17T01:10:37.554Z,1.53
2022-11-17T01:13:40.799Z,1.43
2022-11-17T01:16:42.667Z,1.37
2022-11-17T01:19:44.320Z,1.47
2022-11-17T01:22:45.997Z,1.50
2022-11-17T01:25:47.797Z,1.40
2022-11-17T01:28:50.436Z,1.50
2022-11-17T01:31:52.656Z,1.57
2022-11-17T01:34:54.283Z,1.53
2022-11-17T01:37:55.936Z,1.60
2022-11-17T01:41:06.081Z,1.40
2022-11-17T01:44:41.703Z,1.63
2022-11-17T01:47:49.167Z,1.50
2022-11-17T01:50:50.851Z,2.13
2022-11-17T01:53:52.740Z,1.60
2022-11-17T01:57:02.079Z,2.10
2022-11-17T02:00:10.186Z,1.83
2022-11-17T02:03:12.675Z,1.83
2022-11-17T02:06:26.524Z,2.97
2022-11-17T02:09:28.627Z,1.50
2022-11-17T02:12:32.756Z,1.90
2022-11-17T02:15:34.427Z,1.80
2022-11-17T02:18:36.166Z,1.73
2022-11-17T02:21:55.937Z,1.90
2022-11-17T02:25:16.211Z,1.87
2022-11-17T02:28:34.594Z,1.60
2022-11-17T02:31:39.227Z,2.00
2022-11-17T02:34:57.125Z,1.87
2022-11-17T02:38:19.022Z,1.97
2022-11-17T02:41:30.026Z,1.27
2022-11-17T02:44:37.206Z,1.63
2022-11-17T02:47:43.101Z,1.83
2022-11-17T02:50:46.744Z,1.83
2022-11-17T02:53:51.454Z,1.50
2022-11-17T02:56:53.300Z,2.57
2022-11-17T02:59:56.132Z,1.77
2022-11-17T03:03:25.764Z,2.07
2022-11-17T03:06:36.199Z,1.70
2022-11-17T03:10:02.878Z,1.60
2022-11-17T03:13:11.826Z,1.70
2022-11-17T03:16:37.075Z,1.97
2022-11-17T03:19:46.608Z,1.67
2022-11-17T03:23:06.286Z,2.13
2022-11-17T03:26:12.923Z,1.40
2022-11-17T03:29:17.756Z,1.77
2022-11-17T03:32:20.502Z,2.43
2022-11-17T03:35:26.948Z,1.57
2022-11-17T03:38:35.573Z,1.20
2022-11-17T03:41:42.232Z,1.83
2022-11-17T03:44:49.214Z,1.37
2022-11-17T03:47:57.454Z,1.40
2022-11-17T03:51:06.293Z,1.57
2022-11-17T03:54:09.253Z,1.43
2022-11-17T03:57:38.186Z,1.20
2022-11-17T04:00:41.878Z,1.00
2022-11-17T04:03:43.520Z,1.27
2022-11-17T04:06:45.461Z,1.10
2022-11-17T04:09:47.129Z,1.00
2022-11-17T04:13:08.009Z,0.83
2022-11-17T04:16:09.781Z,0.70
2022-11-17T04:19:11.398Z,1.43
2022-11-17T04:22:13.032Z,0.77
2022-11-17T04:25:34.802Z,0.87
2022-11-17T04:28:39.978Z,1.07
2022-11-17T04:31:41.655Z,0.60
2022-11-17T04:34:43.387Z,0.90
2022-11-17T04:37:45.011Z,0.90
2022-11-17T04:41:05.071Z,0.60
2022-11-17T04:44:08.458Z,0.70
2022-11-17T04:47:10.107Z,0.90
2022-11-17T04:50:11.742Z,0.70
2022-11-17T04:53:13.372Z,0.80
2022-11-17T04:56:15.459Z,0.57
2022-11-17T04:59:17.700Z,0.60
2022-11-17T05:02:19.404Z,0.70
2022-11-17T05:05:21.161Z,0.80
2022-11-17T05:08:22.783Z,0.60
2022-11-17T05:11:45.238Z,0.60
2022-11-17T05:14:48.975Z,0.80
2022-11-17T05:17:50.609Z,0.77
2022-11-17T05:20:52.271Z,0.60
2022-11-17T05:23:53.938Z,0.90
2022-11-17T05:26:55.827Z,0.50
2022-11-17T05:29:57.472Z,1.00
2022-11-17T05:32:59.129Z,0.40
2022-11-17T05:36:00.825Z,0.73
2022-11-17T05:39:03.022Z,0.60
2022-11-17T05:42:04.867Z,0.70
2022-11-17T05:45:07.224Z,0.70
2022-11-17T05:48:08.867Z,0.43
2022-11-17T05:51:11.256Z,0.70
2022-11-17T05:54:12.899Z,0.87
2022-11-17T05:57:21.159Z,1.00
2022-11-17T06:00:22.889Z,0.50
2022-11-17T06:03:29.990Z,0.60
2022-11-17T06:06:34.040Z,0.60
2022-11-17T06:09:38.899Z,0.53
2022-11-17T06:12:40.568Z,0.60
2022-11-17T06:15:42.321Z,0.50
2022-11-17T06:18:51.944Z,0.70
2022-11-17T06:22:14.078Z,0.90
2022-11-17T06:25:16.767Z,1.03
2022-11-17T06:28:21.980Z,0.70
2022-11-17T06:31:26.651Z,0.73
2022-11-17T06:34:29.299Z,0.83
2022-11-17T06:37:30.977Z,0.80
2022-11-17T06:40:32.655Z,1.10
2022-11-17T06:43:34.787Z,1.00
2022-11-17T06:46:40.523Z,0.80
2022-11-17T06:49:44.306Z,0.87
2022-11-17T06:52:45.975Z,0.90
2022-11-17T06:55:51.433Z,1.43
2022-11-17T06:58:54.493Z,1.53
2022-11-17T07:01:56.158Z,1.20
2022-11-17T07:04:57.861Z,1.20
2022-11-17T07:08:00.746Z,1.00
2022-11-17T07:11:03.599Z,1.20
2022-11-17T07:14:05.286Z,1.10
2022-11-17T07:17:07.052Z,1.10
2022-11-17T07:20:10.403Z,1.60
2022-11-17T07:23:12.348Z,1.30
2022-11-17T07:26:14.256Z,1.57
2022-11-17T07:29:15.975Z,1.50
2022-11-17T07:32:17.612Z,1.57
2022-11-17T07:35:19.701Z,1.50
2022-11-17T07:38:21.601Z,1.47
2022-11-17T07:41:23.254Z,1.73
2022-11-17T07:44:24.994Z,1.97
2022-11-17T07:47:26.652Z,1.50
2022-11-17T07:50:29.043Z,1.57
2022-11-17T07:53:32.399Z,1.83
2022-11-17T07:56:34.527Z,1.50
2022-11-17T07:59:36.260Z,1.67
2022-11-17T08:02:37.893Z,1.30
2022-11-17T08:05:43.308Z,1.27
2022-11-17T08:08:45.736Z,2.07
2022-11-17T08:11:47.385Z,1.63
2022-11-17T08:14:49.775Z,1.70
2022-11-17T08:17:56.102Z,1.37
2022-11-17T08:21:09.787Z,1.43
2022-11-17T08:24:12.520Z,1.00
2022-11-17T08:27:14.278Z,1.10
2022-11-17T08:30:16.047Z,0.80
2022-11-17T08:33:17.751Z,0.90
2022-11-17T08:36:19.435Z,0.80
2022-11-17T08:39:21.125Z,0.80
2022-11-17T08:42:22.876Z,0.70
2022-11-17T08:45:24.934Z,0.73
2022-11-17T08:48:26.673Z,0.80
2022-11-17T08:51:29.245Z,0.93
2022-11-17T08:54:30.921Z,0.60
2022-11-17T08:57:33.403Z,0.50
2022-11-17T09:00:35.396Z,0.50
2022-11-17T09:03:37.541Z,0.57
2022-11-17T09:06:39.248Z,0.80
2022-11-17T09:09:40.981Z,0.43
2022-11-17T09:12:42.905Z,0.53
2022-11-17T09:15:44.770Z,0.60
2022-11-17T09:18:46.478Z,0.50
2022-11-17T09:21:48.119Z,0.80
2022-11-17T09:24:49.738Z,0.50
2022-11-17T09:27:52.397Z,0.50
2022-11-17T09:30:54.183Z,0.60
2022-11-17T09:33:59.471Z,0.50
2022-11-17T09:37:02.524Z,0.63
2022-11-17T09:40:04.902Z,0.50
2022-11-17T09:43:16.584Z,0.40
2022-11-17T09:46:50.588Z,0.70
2022-11-17T09:50:13.431Z,0.60
2022-11-17T09:53:25.099Z,0.37
2022-11-17T09:56:27.674Z,0.50
2022-11-17T09:59:32.227Z,0.80
2022-11-17T10:02:34.331Z,0.70
2022-11-17T10:05:36.332Z,0.53
2022-11-17T10:08:53.607Z,1.00
2022-11-17T10:12:07.684Z,0.63
2022-11-17T10:15:25.905Z,0.47
2022-11-17T10:18:35.032Z,0.63
2022-11-17T10:21:39.319Z,0.53
2022-11-17T10:24:44.288Z,0.50
2022-11-17T10:27:52.867Z,0.60
2022-11-17T10:31:00.569Z,0.70
2022-11-17T10:34:02.320Z,1.00
2022-11-17T10:37:27.219Z,0.97
2022-11-17T10:40:53.293Z,0.60
2022-11-17T10:44:03.099Z,0.60
2022-11-17T10:47:04.874Z,0.80
2022-11-17T10:50:25.865Z,0.80
2022-11-17T10:53:41.349Z,0.70
2022-11-17T10:56:50.167Z,0.50
2022-11-17T10:59:57.580Z,0.50
2022-11-17T11:03:15.885Z,0.60
2022-11-17T11:06:24.979Z,0.90
2022-11-17T11:09:27.654Z,0.70
2022-11-17T11:12:43.550Z,2.43
2022-11-17T11:15:45.512Z,9.80
2022-11-17T11:18:50.679Z,1.37
2022-11-17T11:21:58.301Z,0.80
2022-11-17T11:25:06.234Z,0.70
2022-11-17T11:28:30.454Z,0.63
2022-11-17T11:31:39.743Z,0.80
2022-11-17T11:34:57.212Z,0.60
2022-11-17T11:38:56.023Z,0.90
2022-11-17T11:42:19.923Z,1.00
2022-11-17T11:45:21.654Z,0.53
2022-11-17T11:48:34.144Z,0.50
2022-11-17T11:51:37.917Z,0.50
2022-11-17T11:54:51.024Z,0.50
2022-11-17T11:58:05.734Z,0.40
2022-11-17T12:01:09.656Z,0.40
2022-11-17T12:04:24.493Z,0.77
2022-11-17T12:07:46.376Z,0.50
2022-11-17T12:11:00.888Z,0.60
2022-11-17T12:14:05.720Z,0.53
2022-11-17T12:17:13.436Z,0.40
2022-11-17T12:20:37.889Z,0.80
2022-11-17T12:23:48.015Z,0.73
2022-11-17T12:26:49.683Z,0.60
2022-11-17T12:29:51.337Z,0.40
2022-11-17T12:32:54.208Z,1.00
2022-11-17T12:36:29.719Z,0.73
2022-11-17T12:39:58.370Z,0.77
2022-11-17T12:43:15.159Z,0.60
2022-11-17T12:46:24.763Z,0.80
2022-11-17T12:49:34.464Z,0.50
2022-11-17T12:52:57.989Z,0.40
2022-11-17T12:56:25.184Z,0.50
2022-11-17T12:59:57.141Z,0.70
2022-11-17T13:03:25.919Z,0.50
2022-11-17T13:06:35.412Z,0.63
2022-11-17T13:09:38.093Z,0.60
2022-11-17T13:12:39.761Z,0.60
2022-11-17T13:15:43.044Z,0.63
2022-11-17T13:18:45.662Z,0.90
2022-11-17T13:21:47.323Z,0.80
2022-11-17T13:24:50.398Z,0.80
2022-11-17T13:27:57.267Z,0.70
2022-11-17T13:31:01.986Z,0.70
2022-11-17T13:34:12.876Z,0.60
2022-11-17T13:37:20.829Z,0.80
2022-11-17T13:40:22.894Z,0.60
2022-11-17T13:43:27.053Z,0.80
2022-11-17T13:46:28.835Z,0.60
2022-11-17T13:49:37.882Z,0.80
2022-11-17T13:52:46.476Z,0.60
2022-11-17T13:55:49.194Z,0.77
2022-11-17T13:58:52.274Z,0.50
2022-11-17T14:02:21.608Z,0.40
2022-11-17T14:05:26.020Z,0.97
2022-11-17T14:08:31.992Z,0.57
2022-11-17T14:11:33.836Z,0.60
2022-11-17T14:14:38.506Z,0.60
2022-11-17T14:17:40.564Z,0.50
2022-11-17T14:20:42.384Z,0.80
2022-11-17T14:23:44.775Z,0.50
2022-11-17T14:26:46.454Z,0.90
2022-11-17T14:29:48.087Z,0.67
2022-11-17T14:32:49.765Z,0.73
2022-11-17T14:35:54.865Z,0.70
2022-11-17T14:38:56.590Z,0.50
2022-11-17T14:41:58.291Z,1.00
2022-11-17T14:44:59.924Z,1.00
2022-11-17T14:48:02.587Z,0.93
2022-11-17T14:51:04.318Z,0.80
2022-11-17T14:54:06.168Z,1.10
2022-11-17T14:57:07.809Z,0.90
2022-11-17T15:00:13.426Z,0.63
2022-11-17T15:03:17.640Z,0.70
2022-11-17T15:06:20.434Z,0.93
2022-11-17T15:09:22.589Z,1.30
2022-11-17T15:12:24.279Z,1.30
2022-11-17T15:15:26.952Z,1.60
2022-11-17T15:18:28.762Z,0.90
2022-11-17T15:21:30.422Z,0.70
2022-11-17T15:24:32.106Z,0.90
2022-11-17T15:27:33.770Z,1.07
2022-11-17T15:30:35.400Z,1.00
2022-11-17T15:33:37.317Z,0.90
2022-11-17T15:36:39.020Z,1.10
2022-11-17T15:39:40.702Z,2.77
2022-11-17T15:42:42.355Z,6.67
2022-11-17T15:45:43.996Z,7.97
2022-11-17T15:48:48.787Z,3.20
2022-11-17T15:51:50.438Z,2.00
2022-11-17T15:54:52.148Z,1.47
2022-11-17T15:57:55.070Z,1.00
2022-11-17T16:01:24.749Z,1.30
2022-11-17T16:04:26.470Z,0.80
2022-11-17T16:07:28.219Z,1.60
2022-11-17T16:10:29.938Z,1.33
2022-11-17T16:13:31.794Z,1.33
2022-11-17T16:16:35.851Z,1.20
2022-11-17T16:19:37.474Z,1.43
2022-11-17T16:22:39.131Z,1.60
2022-11-17T16:25:42.135Z,2.27
2022-11-17T16:28:43.979Z,2.07
2022-11-17T16:31:45.695Z,2.37
2022-11-17T16:34:49.064Z,2.33
2022-11-17T16:37:53.942Z,1.30
2022-11-17T16:40:59.968Z,1.57
2022-11-17T16:44:03.198Z,1.53
2022-11-17T16:47:04.990Z,1.90
2022-11-17T16:50:06.983Z,2.73
2022-11-17T16:53:08.728Z,4.23
2022-11-17T16:56:11.943Z,4.30
2022-11-17T16:59:14.182Z,3.40
2022-11-17T17:02:16.197Z,2.80
2022-11-17T17:05:17.856Z,1.97
2022-11-17T17:08:19.551Z,1.80
2022-11-17T17:11:21.414Z,1.10
2022-11-17T17:14:23.145Z,1.20
2022-11-17T17:17:24.878Z,1.60
2022-11-17T17:20:26.567Z,1.13
2022-11-17T17:23:29.992Z,0.80
2022-11-17T17:26:33.259Z,1.10
2022-11-17T17:29:34.980Z,1.33
2022-11-17T17:32:36.642Z,1.40
2022-11-17T17:35:38.285Z,1.20
2022-11-17T17:38:40.523Z,1.17
2022-11-17T17:41:44.119Z,1.70
2022-11-17T17:44:45.815Z,1.40
2022-11-17T17:47:47.447Z,1.17
2022-11-17T17:50:49.162Z,1.53
2022-11-17T17:53:52.087Z,2.37
2022-11-17T17:56:53.899Z,2.63
2022-11-17T17:59:55.568Z,1.80
2022-11-17T18:02:57.325Z,1.93
2022-11-17T18:06:00.123Z,1.83
2022-11-17T18:09:01.823Z,4.37
2022-11-17T18:12:03.734Z,3.90
2022-11-17T18:15:05.872Z,3.60
2022-11-17T18:18:07.585Z,3.40
2022-11-17T18:21:11.449Z,3.27
2022-11-17T18:24:13.307Z,2.67
2022-11-17T18:27:14.938Z,2.17
2022-11-17T18:30:16.892Z,1.93
2022-11-17T18:33:18.546Z,2.40
2022-11-17T18:36:21.110Z,1.90
2022-11-17T18:39:23.227Z,1.97
2022-11-17T18:42:24.894Z,1.80
2022-11-17T18:45:26.652Z,1.83
2022-11-17T18:48:29.697Z,2.20
2022-11-17T18:51:33.309Z,1.53
2022-11-17T18:54:35.099Z,1.73
2022-11-17T18:57:39.594Z,2.33
2022-11-17T19:00:45.212Z,2.60
2022-11-17T19:03:49.082Z,2.50
2022-11-17T19:06:51.018Z,3.00
2022-11-17T19:09:52.790Z,3.00
2022-11-17T19:12:54.430Z,2.70
2022-11-17T19:15:56.415Z,2.33
2022-11-17T19:18:59.219Z,2.50
2022-11-17T19:22:00.851Z,3.07
2022-11-17T19:25:02.548Z,3.90
2022-11-17T19:28:04.430Z,4.00
2022-11-17T19:31:15.321Z,4.70
2022-11-17T19:34:17.003Z,9.50
2022-11-17T19:37:18.629Z,6.07
2022-11-17T19:40:20.403Z,9.40
2022-11-17T19:43:22.058Z,3.83
2022-11-17T19:46:25.300Z,3.73
2022-11-17T19:49:26.921Z,4.40
2022-11-17T19:52:30.190Z,3.10
2022-11-17T19:55:34.306Z,3.73
2022-11-17T19:58:36.017Z,6.40
2022-11-17T20:01:37.741Z,6.47
2022-11-17T20:04:40.242Z,7.33
2022-11-17T20:07:41.939Z,5.50
2022-11-17T20:10:43.616Z,5.27
2022-11-17T20:13:45.781Z,5.53
2022-11-17T20:16:47.454Z,4.53
2022-11-17T20:19:49.069Z,4.40
2022-11-17T20:22:50.773Z,5.00
2022-11-17T20:25:52.413Z,3.43
2022-11-17T20:28:54.352Z,4.07
2022-11-17T20:31:55.994Z,3.77
2022-11-17T20:34:57.811Z,3.23
2022-11-17T20:38:02.196Z,4.40
2022-11-17T20:41:04.751Z,3.23
2022-11-17T20:44:23.476Z,3.63
2022-11-17T20:47:27.439Z,3.90
2022-11-17T20:50:29.076Z,4.03
2022-11-17T20:53:31.293Z,3.40
2022-11-17T20:56:32.931Z,3.40
2022-11-17T20:59:34.554Z,3.70
2022-11-17T21:02:36.243Z,3.20
2022-11-17T21:05:37.883Z,3.80
2022-11-17T21:08:41.298Z,4.10
2022-11-17T21:11:58.285Z,3.73
2022-11-17T21:15:00.039Z,3.47
2022-11-17T21:18:20.401Z,3.60
2022-11-17T21:21:22.263Z,3.00
2022-11-17T21:24:23.945Z,3.10
2022-11-17T21:27:25.564Z,3.20
2022-11-17T21:30:27.176Z,3.13
2022-11-17T21:33:28.861Z,3.30
2022-11-17T21:36:31.638Z,3.87
2022-11-17T21:39:33.366Z,3.77
2022-11-17T21:42:35.019Z,4.30
2022-11-17T21:45:36.635Z,5.10
2022-11-17T21:48:38.823Z,3.30
2022-11-17T21:51:40.463Z,3.17
2022-11-17T21:54:42.236Z,4.23
2022-11-17T21:57:43.914Z,4.43
2022-11-17T22:00:45.662Z,5.47
2022-11-17T22:03:47.410Z,6.10
2022-11-17T22:06:49.043Z,5.60
2022-11-17T22:09:50.679Z,4.10
2022-11-17T22:12:52.334Z,5.40
2022-11-17T22:15:54.012Z,6.20
2022-11-17T22:18:55.774Z,5.20
2022-11-17T22:21:57.433Z,4.53
2022-11-17T22:25:16.728Z,3.83
2022-11-17T22:28:21.399Z,3.60
2022-11-17T22:31:23.503Z,2.97
2022-11-17T22:34:25.234Z,3.50
2022-11-17T22:37:27.205Z,2.90
2022-11-17T22:40:28.886Z,3.03
2022-11-17T22:43:30.600Z,3.30
2022-11-17T22:46:32.303Z,3.80
2022-11-17T22:49:33.947Z,3.07
2022-11-17T22:52:35.576Z,4.17
2022-11-17T22:55:37.258Z,4.00
2022-11-17T22:58:38.900Z,3.80
2022-11-17T23:01:40.546Z,3.93
2022-11-17T23:04:42.204Z,3.87
2022-11-17T23:07:44.277Z,3.43
2022-11-17T23:10:46.040Z,3.57
2022-11-17T23:13:47.772Z,3.40
2022-11-17T23:16:49.431Z,3.40
2022-11-17T23:19:51.078Z,2.97
2022-11-17T23:22:53.960Z,2.73
2022-11-17T23:26:00.318Z,3.83
2022-11-17T23:29:01.976Z,2.50
2022-11-17T23:32:03.734Z,3.40
2022-11-17T23:35:05.784Z,2.50
2022-11-17T23:38:07.678Z,2.83
2022-11-17T23:41:12.622Z,2.53
2022-11-17T23:44:14.309Z,2.13
2022-11-17T23:47:15.987Z,2.43
2022-11-17T23:50:17.742Z,2.40
2022-11-17T23:53:19.380Z,2.80
2022-11-17T23:56:22.060Z,2.63
2022-11-17T23:59:23.702Z,2.23
